Cleora, South Carolina
Current Conditions -  °F | °C
As of 9:35 AM on Monday 26 Jan 2015 (Local Time) from KAIK Reporting Station
Clear Clear  
Wind Chill: 50°   Ceiling: Unl
Heat Index: 50°   Visibility: 10mi
Dew Point: 41°   Wind: 14mph
Humidity: 71%   Direction: 270°W
Pressure: 29.71"   Gusts: NA
Location:  33.8233°N, 82.0147°W
Report Text: KAIK 261435Z AUTO 27012KT 10SM CLR 10/05 A2971 RMK AO2 PNO
Loading
Personal Weather Stations






























Interactive Weather Map New forecast layout! Learn more

10-Day Weather Forecast

Advertisements
Track Severe Weather on mobile